Time;durP1;ratioP1;P1;durP2;ratioP2;P2;SDS_P1;SDS_P2;PMS_P1;PMS_P2;Temp;Humidity;BMP_temperature;BMP_pressure;BME280_temperature;BME280_humidity;BME280_pressure;Samples;Min_cycle;Max_cycle;Signal;HPM_P1;HPM_P2
2023/05/19 00:00:08;;;;;;;3.50;2.05;;;10.10;97.00;;;;;;2049940;28;20274;-67
2023/05/19 00:01:18;;;;;;;4.60;2.20;;;10.10;97.20;;;;;;2054057;28;20251;-68
2023/05/19 00:02:19;;;;;;;2.55;1.83;;;10.10;96.50;;;;;;2051556;28;20250;-67
2023/05/19 00:03:20;;;;;;;3.47;1.88;;;10.10;96.70;;;;;;2062947;28;20226;-67
2023/05/19 00:04:22;;;;;;;5.78;2.25;;;10.10;96.80;;;;;;2063495;28;20225;-67
2023/05/19 00:05:23;;;;;;;4.13;2.08;;;10.00;96.90;;;;;;2049584;28;20247;-67
2023/05/19 00:06:31;;;;;;;3.92;1.90;;;10.00;97.20;;;;;;2048399;28;20239;-68
2023/05/19 00:07:37;;;;;;;2.80;1.95;;;10.00;97.00;;;;;;2057893;28;20234;-67
2023/05/19 00:08:38;;;;;;;2.97;2.10;;;10.00;97.00;;;;;;2054130;28;20230;-68
2023/05/19 00:09:39;;;;;;;3.03;2.03;;;10.00;97.50;;;;;;2053738;28;20321;-68
2023/05/19 00:10:40;;;;;;;4.20;1.85;;;10.00;97.50;;;;;;2055197;28;20658;-68
2023/05/19 00:11:41;;;;;;;4.20;2.00;;;9.90;97.40;;;;;;2056208;28;20268;-68
2023/05/19 00:12:43;;;;;;;4.93;2.50;;;9.90;97.20;;;;;;2052554;28;20210;-72
2023/05/19 00:13:48;;;;;;;2.67;1.85;;;9.90;97.40;;;;;;2057554;28;20191;-67
2023/05/19 00:14:50;;;;;;;4.82;2.95;;;9.90;97.40;;;;;;2068247;28;20609;-68
2023/05/19 00:15:52;;;;;;;3.58;2.00;;;9.90;97.40;;;;;;2066417;28;20194;-67
2023/05/19 00:16:54;;;;;;;5.05;2.00;;;9.90;97.20;;;;;;2060918;28;20288;-67
2023/05/19 00:17:55;;;;;;;3.78;2.28;;;9.90;97.60;;;;;;2063253;28;20657;-67
2023/05/19 00:19:01;;;;;;;3.07;1.83;;;9.90;97.80;;;;;;2063312;28;20273;-67
2023/05/19 00:20:06;;;;;;;5.47;2.20;;;10.00;97.50;;;;;;2055145;28;20729;-67
2023/05/19 00:21:06;;;;;;;4.82;2.10;;;9.90;97.40;;;;;;2057314;28;20233;-66
2023/05/19 00:22:07;;;;;;;5.73;2.10;;;10.30;97.90;;;;;;2056559;28;20237;-66
2023/05/19 00:23:10;;;;;;;2.67;1.93;;;9.90;97.80;;;;;;2056955;28;20542;-67
2023/05/19 00:24:12;;;;;;;5.60;2.38;;;9.90;98.10;;;;;;2060563;28;20225;-67
2023/05/19 00:25:12;;;;;;;5.68;2.20;;;9.90;98.00;;;;;;2069026;28;20252;-66
2023/05/19 00:26:14;;;;;;;4.47;2.13;;;9.90;97.60;;;;;;2052453;28;20340;-66
2023/05/19 00:27:15;;;;;;;4.63;2.30;;;9.80;98.00;;;;;;2060906;28;20268;-67
2023/05/19 00:28:16;;;;;;;4.10;2.20;;;9.90;98.10;;;;;;2063602;28;20230;-67
2023/05/19 00:29:17;;;;;;;4.93;1.80;;;9.90;98.20;;;;;;2058687;28;20371;-67
2023/05/19 00:30:21;;;;;;;5.13;1.80;;;9.80;98.00;;;;;;2057389;28;20227;-66
2023/05/19 00:31:22;;;;;;;2.70;2.00;;;9.80;98.00;;;;;;2058233;28;20261;-67
2023/05/19 00:32:23;;;;;;;3.93;2.13;;;9.80;98.00;;;;;;2052692;28;20634;-66
2023/05/19 00:33:23;;;;;;;3.73;1.93;;;9.80;98.10;;;;;;2063641;28;20226;-67
2023/05/19 00:34:24;;;;;;;3.40;2.03;;;9.80;98.40;;;;;;2060515;28;20297;-67
2023/05/19 00:35:25;;;;;;;3.60;2.03;;;9.80;98.40;;;;;;2054499;28;20234;-66
2023/05/19 00:36:26;;;;;;;5.80;2.10;;;9.80;98.20;;;;;;2053323;28;20606;-67
2023/05/19 00:37:28;;;;;;;3.70;2.30;;;9.90;98.20;;;;;;2067449;28;20470;-67
2023/05/19 00:38:34;;;;;;;3.72;2.50;;;9.90;98.30;;;;;;2067196;28;20226;-67
2023/05/19 00:39:35;;;;;;;7.20;2.40;;;9.80;98.80;;;;;;2059195;28;20239;-67
2023/05/19 00:40:36;;;;;;;3.17;1.92;;;9.80;98.40;;;;;;2059465;28;20234;-67
2023/05/19 00:41:37;;;;;;;4.07;1.80;;;9.80;98.30;;;;;;2060783;28;20261;-67
2023/05/19 00:42:38;;;;;;;3.20;1.90;;;9.80;98.60;;;;;;2047862;28;20250;-66
2023/05/19 00:43:38;;;;;;;3.35;1.92;;;9.90;98.30;;;;;;2055335;28;20254;-69
2023/05/19 00:44:40;;;;;;;7.80;2.50;;;9.70;98.40;;;;;;2048653;28;20275;-68
2023/05/19 00:45:42;;;;;;;3.35;2.00;;;9.80;98.50;;;;;;2056183;28;20187;-67
2023/05/19 00:46:43;;;;;;;3.50;2.30;;;9.80;98.30;;;;;;2038141;28;20675;-67
2023/05/19 00:47:44;;;;;;;5.10;2.30;;;9.80;98.40;;;;;;2049348;28;20188;-67
2023/05/19 00:48:45;;;;;;;7.97;2.20;;;9.80;99.00;;;;;;2064388;28;20506;-67
2023/05/19 00:49:46;;;;;;;3.43;2.20;;;9.70;98.60;;;;;;2060307;28;20267;-67
2023/05/19 00:50:48;;;;;;;3.73;2.00;;;9.70;98.60;;;;;;2061647;28;20917;-67
2023/05/19 00:51:49;;;;;;;6.72;2.33;;;9.80;98.70;;;;;;2054877;28;20569;-67
2023/05/19 00:52:50;;;;;;;5.95;2.55;;;9.80;98.70;;;;;;2062889;28;20776;-67
2023/05/19 00:53:51;;;;;;;5.60;2.38;;;9.80;98.50;;;;;;2062571;28;20839;-68
2023/05/19 00:54:54;;;;;;;6.70;3.43;;;9.90;98.20;;;;;;2061399;28;20199;-66
2023/05/19 00:55:56;;;;;;;4.47;1.80;;;9.90;97.80;;;;;;2063561;28;20447;-66
2023/05/19 00:56:59;;;;;;;4.22;2.13;;;9.80;98.20;;;;;;2060922;28;20545;-66
2023/05/19 00:58:00;;;;;;;3.05;2.10;;;9.80;98.90;;;;;;2068483;28;20650;-67
2023/05/19 00:59:02;;;;;;;3.60;2.20;;;9.70;98.80;;;;;;2064631;28;20230;-67
2023/05/19 01:00:04;;;;;;;4.18;2.33;;;9.70;98.40;;;;;;2046276;28;20311;-67
2023/05/19 01:01:06;;;;;;;3.00;2.65;;;9.70;99.00;;;;;;2048795;28;20227;-67
2023/05/19 01:02:07;;;;;;;6.78;2.40;;;9.70;98.90;;;;;;2060502;28;21046;-66
2023/05/19 01:03:11;;;;;;;3.33;2.10;;;9.80;98.90;;;;;;2061346;28;20241;-67
2023/05/19 01:04:15;;;;;;;4.07;2.38;;;9.80;98.40;;;;;;2057287;28;20238;-67
2023/05/19 01:05:16;;;;;;;3.25;2.00;;;9.80;98.70;;;;;;2061150;28;20230;-67
2023/05/19 01:06:20;;;;;;;5.37;2.00;;;9.80;98.70;;;;;;2068506;28;20236;-66
2023/05/19 01:07:22;;;;;;;6.18;2.22;;;9.80;98.30;;;;;;2068048;28;20229;-66
2023/05/19 01:08:23;;;;;;;4.13;2.10;;;9.80;98.20;;;;;;2059975;28;20270;-66
2023/05/19 01:09:23;;;;;;;4.17;1.90;;;9.80;98.50;;;;;;2054527;28;20230;-66
2023/05/19 01:10:25;;;;;;;7.20;2.60;;;9.70;98.30;;;;;;2056927;28;20227;-66
2023/05/19 01:11:26;;;;;;;4.50;2.25;;;9.70;98.40;;;;;;2064174;28;20590;-67
2023/05/19 01:12:27;;;;;;;4.80;2.33;;;9.60;98.80;;;;;;2061736;28;20238;-66
2023/05/19 01:13:29;;;;;;;5.10;2.67;;;9.60;99.10;;;;;;2063152;28;20475;-67
2023/05/19 01:14:30;;;;;;;2.92;2.10;;;9.60;99.50;;;;;;2059259;28;20257;-67
2023/05/19 01:16:11;;;;;;;3.83;2.30;;;9.50;99.40;;;;;;2061359;28;20719;-66
2023/05/19 01:17:29;;;;;;;4.70;2.08;;;9.50;99.80;;;;;;2054706;28;20238;-67
2023/05/19 01:19:00;;;;;;;5.90;2.30;;;9.40;99.90;;;;;;2058537;28;20233;-67
2023/05/19 01:20:20;;;;;;;6.40;2.40;;;9.40;99.90;;;;;;2058245;28;20808;-67
2023/05/19 01:22:05;;;;;;;6.78;4.03;;;9.40;99.90;;;;;;2066969;28;20233;-67
2023/05/19 01:23:27;;;;;;;5.32;2.50;;;9.40;99.90;;;;;;2057736;28;20303;-67
2023/05/19 01:25:05;;;;;;;4.82;2.33;;;9.40;99.90;;;;;;2062736;28;20238;-66
2023/05/19 01:26:46;;;;;;;5.50;2.30;;;9.40;99.90;;;;;;2059029;28;20234;-67
2023/05/19 01:28:12;;;;;;;8.15;2.38;;;9.40;99.90;;;;;;2046483;28;20578;-67
2023/05/19 01:29:51;;;;;;;3.75;2.20;;;9.50;99.90;;;;;;2057022;28;20238;-67
2023/05/19 01:30:54;;;;;;;3.03;2.00;;;9.50;99.90;;;;;;2057425;28;20584;-67
2023/05/19 01:31:59;;;;;;;6.03;2.33;;;9.40;99.90;;;;;;2071697;28;20284;-67
2023/05/19 01:33:05;;;;;;;4.32;2.45;;;9.40;99.90;;;;;;2059683;28;20369;-67
2023/05/19 01:34:08;;;;;;;4.38;2.95;;;9.50;99.90;;;;;;2053431;28;20232;-67
2023/05/19 01:35:14;;;;;;;5.40;2.20;;;9.40;99.90;;;;;;2053140;28;20231;-67
2023/05/19 01:36:16;;;;;;;5.25;2.80;;;9.30;99.90;;;;;;2064516;28;20238;-67
2023/05/19 01:37:18;;;;;;;7.00;2.53;;;9.30;99.90;;;;;;2050844;28;20239;-67
2023/05/19 01:38:19;;;;;;;3.80;2.78;;;9.40;99.90;;;;;;2045963;28;20228;-67
2023/05/19 01:39:23;;;;;;;4.28;2.33;;;9.30;99.90;;;;;;2056405;28;20233;-66
2023/05/19 01:40:25;;;;;;;5.05;2.70;;;9.20;99.90;;;;;;2054242;28;20661;-67
2023/05/19 01:41:28;;;;;;;5.18;2.60;;;9.20;99.90;;;;;;2050894;28;20234;-67
2023/05/19 01:42:36;;;;;;;5.20;2.67;;;9.20;99.90;;;;;;2059123;28;20237;-66
2023/05/19 01:43:38;;;;;;;7.55;2.60;;;9.10;99.90;;;;;;2060470;28;20248;-67
2023/05/19 01:44:39;;;;;;;8.40;2.63;;;9.10;99.90;;;;;;2053354;28;20215;-68
2023/05/19 01:45:41;;;;;;;3.78;2.70;;;9.10;99.90;;;;;;2055456;28;20197;-68
2023/05/19 01:46:42;;;;;;;3.85;2.30;;;9.10;99.90;;;;;;2044846;28;20206;-67
2023/05/19 01:47:53;;;;;;;7.85;2.50;;;9.00;99.90;;;;;;2048020;28;20232;-67
2023/05/19 01:48:55;;;;;;;4.25;2.90;;;9.10;99.90;;;;;;2047206;29;20195;-66
2023/05/19 01:49:55;;;;;;;4.88;2.40;;;9.10;99.90;;;;;;2054134;28;20183;-67
2023/05/19 01:50:56;;;;;;;7.60;2.90;;;9.00;99.90;;;;;;2053443;28;20265;-67
2023/05/19 01:52:01;;;;;;;6.30;2.63;;;9.00;99.90;;;;;;2046663;28;20346;-68
2023/05/19 01:53:01;;;;;;;5.40;2.45;;;9.10;99.90;;;;;;2052816;28;20235;-66
2023/05/19 01:54:03;;;;;;;3.43;2.37;;;9.10;99.90;;;;;;2056340;28;20237;-67
2023/05/19 01:55:05;;;;;;;3.22;2.22;;;9.10;99.90;;;;;;2056495;28;20225;-67
2023/05/19 01:56:06;;;;;;;5.03;2.60;;;9.10;99.90;;;;;;2061149;28;20243;-67
2023/05/19 01:57:42;;;;;;;6.00;2.58;;;9.10;99.90;;;;;;2056987;28;20245;-67
2023/05/19 01:58:47;;;;;;;3.97;2.25;;;9.00;99.90;;;;;;2055004;28;20724;-67
2023/05/19 02:00:06;;;;;;;4.28;2.60;;;8.90;99.90;;;;;;2049924;28;20196;-67
2023/05/19 02:01:19;;;;;;;4.55;2.50;;;8.90;99.90;;;;;;2052550;28;20238;-67
2023/05/19 02:02:28;;;;;;;5.75;2.47;;;8.90;99.90;;;;;;2053489;28;20231;-66
2023/05/19 02:03:42;;;;;;;5.38;2.75;;;8.80;99.90;;;;;;2069658;28;20236;-67
2023/05/19 02:04:54;;;;;;;4.60;2.65;;;8.90;99.90;;;;;;2058069;28;20225;-67
2023/05/19 02:06:39;;;;;;;5.03;2.55;;;8.80;99.90;;;;;;2049563;28;20192;-67
2023/05/19 02:08:07;;;;;;;5.40;2.38;;;8.80;99.90;;;;;;2056866;28;20291;-68
2023/05/19 02:10:06;;;;;;;3.60;2.60;;;8.80;99.90;;;;;;2055519;28;20236;-66
2023/05/19 02:11:30;;;;;;;5.18;2.75;;;8.80;99.90;;;;;;2059440;28;20249;-67
2023/05/19 02:12:36;;;;;;;5.38;3.10;;;8.80;99.90;;;;;;2064147;28;20321;-67
2023/05/19 02:13:43;;;;;;;5.13;2.78;;;8.60;99.90;;;;;;2059800;28;20252;-67
2023/05/19 02:15:10;;;;;;;4.70;2.78;;;8.60;99.90;;;;;;2052888;28;20222;-67
2023/05/19 02:16:13;;;;;;;8.70;2.75;;;8.70;99.90;;;;;;2056430;28;20239;-67
2023/05/19 02:17:17;;;;;;;3.45;2.40;;;8.70;99.90;;;;;;2052610;28;20274;-67
2023/05/19 02:18:19;;;;;;;7.20;3.35;;;8.60;99.90;;;;;;2059474;28;20301;-67
2023/05/19 02:19:38;;;;;;;8.05;3.03;;;8.60;99.90;;;;;;2068008;28;20654;-67
2023/05/19 02:20:39;;;;;;;5.15;2.83;;;8.60;99.90;;;;;;2059694;28;20730;-68
2023/05/19 02:21:40;;;;;;;10.77;2.85;;;8.60;99.90;;;;;;2052179;28;20186;-67
2023/05/19 02:22:41;;;;;;;3.10;2.73;;;8.50;99.90;;;;;;2051426;28;20816;-67
2023/05/19 02:23:41;;;;;;;6.03;2.70;;;8.50;99.90;;;;;;2048162;28;20398;-68
2023/05/19 02:24:43;;;;;;;5.30;2.73;;;8.50;99.90;;;;;;2051100;28;20425;-68
2023/05/19 02:25:44;;;;;;;11.30;4.07;;;8.50;99.90;;;;;;2056325;28;20281;-68
2023/05/19 02:26:47;;;;;;;7.43;3.57;;;8.40;99.90;;;;;;2048700;28;20598;-67
2023/05/19 02:27:48;;;;;;;5.68;2.85;;;8.40;99.90;;;;;;2053344;28;20220;-67
2023/05/19 02:28:48;;;;;;;6.70;2.63;;;8.40;99.90;;;;;;2055515;28;20558;-67
2023/05/19 02:29:49;;;;;;;8.10;3.07;;;8.50;99.90;;;;;;2051751;28;20187;-67
2023/05/19 02:30:50;;;;;;;7.53;3.13;;;8.30;99.90;;;;;;2056592;28;20185;-67
2023/05/19 02:31:51;;;;;;;5.27;2.77;;;8.40;99.90;;;;;;2060317;28;20194;-67
2023/05/19 02:32:53;;;;;;;5.77;2.80;;;8.40;99.90;;;;;;2049226;28;20218;-67
2023/05/19 02:33:54;;;;;;;4.82;2.67;;;8.40;99.90;;;;;;2062511;28;20187;-67
2023/05/19 02:34:55;;;;;;;6.78;3.00;;;8.30;99.90;;;;;;2058282;28;20207;-67
2023/05/19 02:35:56;;;;;;;5.03;2.75;;;8.40;99.90;;;;;;2051630;28;20202;-67
2023/05/19 02:36:57;;;;;;;4.55;2.78;;;8.30;99.90;;;;;;2053017;28;20197;-67
2023/05/19 02:37:58;;;;;;;5.63;2.85;;;8.30;99.90;;;;;;2052189;28;20791;-66
2023/05/19 02:39:00;;;;;;;7.33;2.93;;;8.30;99.90;;;;;;2057905;28;20244;-67
2023/05/19 02:40:01;;;;;;;5.50;3.05;;;8.40;99.90;;;;;;2055396;28;20264;-67
2023/05/19 02:41:02;;;;;;;5.17;3.07;;;8.30;99.90;;;;;;2059350;28;20240;-67
2023/05/19 02:42:04;;;;;;;8.35;2.90;;;8.30;99.90;;;;;;2055465;28;20735;-66
2023/05/19 02:43:05;;;;;;;4.40;2.80;;;8.30;99.90;;;;;;2045351;28;20592;-67
2023/05/19 02:44:06;;;;;;;6.33;3.00;;;8.30;99.90;;;;;;2058909;28;20255;-68
2023/05/19 02:45:07;;;;;;;5.57;2.92;;;8.30;99.90;;;;;;2056645;28;20229;-68
2023/05/19 02:46:08;;;;;;;6.30;3.00;;;8.40;99.90;;;;;;2060556;28;20693;-68
2023/05/19 02:47:09;;;;;;;6.10;3.00;;;8.30;99.90;;;;;;2066726;28;20297;-67
2023/05/19 02:48:10;;;;;;;5.18;3.25;;;8.30;99.90;;;;;;2063443;28;20232;-67
2023/05/19 02:49:11;;;;;;;6.50;3.90;;;8.30;99.90;;;;;;2053424;28;20234;-68
2023/05/19 02:50:11;;;;;;;7.60;3.00;;;8.30;99.90;;;;;;2056449;28;20286;-67
2023/05/19 02:51:12;;;;;;;5.77;2.90;;;8.20;99.90;;;;;;2056824;28;20230;-68
2023/05/19 02:52:13;;;;;;;4.93;2.73;;;8.20;99.90;;;;;;2060994;28;20233;-67
2023/05/19 02:53:13;;;;;;;7.40;3.10;;;8.30;99.90;;;;;;2054660;28;20247;-67
2023/05/19 02:54:14;;;;;;;7.20;3.40;;;8.20;99.90;;;;;;2057084;28;20313;-67
2023/05/19 02:55:16;;;;;;;8.33;3.20;;;8.20;99.90;;;;;;2060018;28;20686;-67
2023/05/19 02:56:17;;;;;;;6.93;3.33;;;7.50;99.90;;;;;;2062918;28;20248;-67
2023/05/19 02:57:17;;;;;;;5.50;2.90;;;8.20;99.90;;;;;;2060018;28;20222;-68
2023/05/19 02:58:19;;;;;;;4.63;2.90;;;8.20;99.90;;;;;;2057230;28;20234;-67
2023/05/19 02:59:19;;;;;;;5.35;3.08;;;8.00;99.90;;;;;;2057396;28;20259;-67
2023/05/19 03:00:21;;;;;;;7.37;2.93;;;8.00;99.90;;;;;;2060755;28;20247;-67
2023/05/19 03:01:22;;;;;;;5.00;2.70;;;8.00;99.90;;;;;;2053488;28;20297;-68
2023/05/19 03:02:23;;;;;;;5.43;2.87;;;8.10;99.90;;;;;;2046241;28;20255;-67
2023/05/19 03:03:24;;;;;;;6.03;3.80;;;8.10;99.90;;;;;;2058476;28;20222;-67
2023/05/19 03:04:26;;;;;;;4.60;3.15;;;8.10;99.90;;;;;;2052615;28;20259;-67
2023/05/19 03:05:29;;;;;;;5.93;2.85;;;8.20;99.90;;;;;;2061424;28;20217;-67
2023/05/19 03:06:31;;;;;;;5.50;2.97;;;8.20;99.90;;;;;;2063658;28;20234;-67
2023/05/19 03:07:32;;;;;;;5.63;3.10;;;8.30;99.90;;;;;;2052758;28;20235;-67
2023/05/19 03:08:34;;;;;;;5.00;2.83;;;8.30;99.90;;;;;;2055136;28;20700;-67
2023/05/19 03:09:38;;;;;;;5.25;2.90;;;8.30;99.90;;;;;;2066603;28;20599;-67
2023/05/19 03:10:40;;;;;;;3.88;2.60;;;8.30;99.90;;;;;;2058632;28;20221;-68
2023/05/19 03:11:41;;;;;;;5.30;3.10;;;8.30;99.90;;;;;;2053097;28;20641;-67
2023/05/19 03:12:42;;;;;;;6.83;3.33;;;8.30;99.90;;;;;;2057140;28;20219;-68
2023/05/19 03:13:44;;;;;;;5.10;3.17;;;8.40;99.90;;;;;;2058394;28;20233;-67
2023/05/19 03:14:46;;;;;;;7.95;3.40;;;8.40;99.90;;;;;;2062170;28;20202;-67
2023/05/19 03:15:49;;;;;;;7.15;3.28;;;8.40;99.90;;;;;;2062895;28;20656;-67
2023/05/19 03:16:50;;;;;;;5.70;2.83;;;8.50;99.90;;;;;;2069695;28;20212;-67
2023/05/19 03:17:51;;;;;;;6.00;2.70;;;8.50;99.90;;;;;;2056632;28;20217;-68
2023/05/19 03:18:52;;;;;;;4.90;2.53;;;8.50;99.90;;;;;;2057249;28;20196;-67
2023/05/19 03:19:53;;;;;;;5.70;2.80;;;8.50;99.90;;;;;;2059473;28;20197;-68
2023/05/19 03:20:54;;;;;;;4.43;2.73;;;8.40;99.90;;;;;;2056117;28;20194;-68
2023/05/19 03:21:55;;;;;;;6.70;2.70;;;8.40;99.90;;;;;;2061094;28;20190;-69
2023/05/19 03:22:56;;;;;;;5.05;2.60;;;8.40;99.90;;;;;;2040452;28;20220;-67
2023/05/19 03:23:57;;;;;;;9.05;2.97;;;8.40;99.90;;;;;;2042862;28;20242;-68
2023/05/19 03:24:58;;;;;;;6.20;2.90;;;8.40;99.90;;;;;;2064171;28;20247;-68
2023/05/19 03:26:00;;;;;;;5.40;3.10;;;8.50;99.90;;;;;;2054429;28;20212;-68
2023/05/19 03:27:01;;;;;;;6.13;2.85;;;8.60;99.90;;;;;;2063093;28;20240;-68
2023/05/19 03:28:02;;;;;;;6.95;2.78;;;8.60;99.90;;;;;;2065482;28;20642;-67
2023/05/19 03:29:02;;;;;;;4.00;2.87;;;8.60;99.90;;;;;;2047517;28;20234;-67
2023/05/19 03:30:04;;;;;;;4.83;2.80;;;8.50;99.90;;;;;;2043105;28;20249;-67
2023/05/19 03:31:05;;;;;;;5.75;2.78;;;8.60;99.90;;;;;;2062535;28;20317;-68
2023/05/19 03:32:06;;;;;;;8.27;2.67;;;8.50;99.90;;;;;;2060121;28;20253;-67
2023/05/19 03:33:07;;;;;;;6.32;3.20;;;8.40;99.90;;;;;;2050173;28;20367;-68
2023/05/19 03:34:07;;;;;;;4.87;2.50;;;8.50;99.90;;;;;;2047152;28;20688;-68
2023/05/19 03:35:08;;;;;;;10.07;2.50;;;8.40;99.90;;;;;;2051375;28;20286;-68
2023/05/19 03:36:11;;;;;;;4.90;3.00;;;8.50;99.90;;;;;;2056341;28;20267;-68
2023/05/19 03:37:12;;;;;;;4.38;2.75;;;8.40;99.90;;;;;;2054211;28;20225;-68
2023/05/19 03:38:14;;;;;;;3.80;2.83;;;8.50;99.90;;;;;;2058423;28;20221;-67
2023/05/19 03:39:16;;;;;;;5.22;3.20;;;8.40;99.90;;;;;;2051218;28;20668;-67
2023/05/19 03:40:17;;;;;;;6.88;3.00;;;8.30;99.90;;;;;;2057901;28;20238;-67
2023/05/19 03:41:18;;;;;;;5.40;2.80;;;8.30;99.90;;;;;;2057849;28;20218;-67
2023/05/19 03:42:19;;;;;;;6.57;3.10;;;8.40;99.90;;;;;;2058017;28;20229;-67
2023/05/19 03:43:19;;;;;;;5.30;2.60;;;8.40;99.90;;;;;;2061999;28;20228;-67
2023/05/19 03:44:20;;;;;;;5.07;3.37;;;8.50;99.90;;;;;;2055998;28;20240;-67
2023/05/19 03:45:21;;;;;;;6.17;3.40;;;8.50;99.90;;;;;;2056971;28;20238;-67
2023/05/19 03:46:22;;;;;;;7.47;2.80;;;8.50;99.90;;;;;;2049595;28;20695;-67
2023/05/19 03:47:22;;;;;;;6.77;3.60;;;8.60;99.90;;;;;;2061182;28;20253;-68
2023/05/19 03:48:23;;;;;;;6.50;3.43;;;8.60;99.90;;;;;;2063116;28;20233;-67
2023/05/19 03:49:24;;;;;;;7.10;3.70;;;8.60;99.90;;;;;;2050808;28;20234;-67
2023/05/19 03:50:27;;;;;;;6.17;3.00;;;8.60;99.90;;;;;;2058119;28;20226;-68
2023/05/19 03:51:28;;;;;;;7.60;3.30;;;8.60;99.90;;;;;;2057414;28;20688;-67
2023/05/19 03:52:29;;;;;;;6.60;4.60;;;8.60;99.90;;;;;;2058200;28;20252;-67
2023/05/19 03:53:30;;;;;;;5.77;3.33;;;8.70;99.90;;;;;;2059461;28;20288;-67
2023/05/19 03:54:31;;;;;;;4.20;3.43;;;8.80;99.90;;;;;;2055725;28;20229;-67
2023/05/19 03:55:31;;;;;;;8.87;3.03;;;8.70;99.90;;;;;;2051168;28;20231;-67
2023/05/19 03:56:32;;;;;;;3.53;2.80;;;8.80;99.90;;;;;;2063325;28;20621;-67
2023/05/19 03:57:33;;;;;;;5.15;3.33;;;8.80;99.90;;;;;;2070080;28;20707;-67
2023/05/19 03:58:38;;;;;;;8.60;4.20;;;8.80;99.90;;;;;;2070654;28;20248;-67
2023/05/19 03:59:40;;;;;;;8.27;4.18;;;8.80;99.90;;;;;;2068746;28;20223;-67
2023/05/19 04:00:43;;;;;;;4.38;3.50;;;8.90;99.90;;;;;;2053120;28;20217;-67
2023/05/19 04:01:45;;;;;;;6.28;3.33;;;8.80;99.90;;;;;;2060836;28;20723;-67
2023/05/19 04:02:46;;;;;;;9.73;4.10;;;8.90;99.90;;;;;;2069619;28;20217;-67
2023/05/19 04:03:47;;;;;;;8.02;3.65;;;8.90;99.90;;;;;;2059337;28;20199;-68
2023/05/19 04:04:49;;;;;;;6.93;3.13;;;8.90;99.90;;;;;;2059668;28;20911;-67
2023/05/19 04:05:50;;;;;;;5.65;2.83;;;9.00;99.90;;;;;;2056852;28;20200;-67
2023/05/19 04:06:51;;;;;;;6.65;2.97;;;9.00;99.90;;;;;;2056966;28;20200;-67
2023/05/19 04:07:51;;;;;;;4.60;2.93;;;8.90;99.90;;;;;;2054629;28;20198;-68
2023/05/19 04:08:52;;;;;;;5.43;3.30;;;9.00;99.90;;;;;;2060095;28;20198;-68
2023/05/19 04:09:53;;;;;;;8.47;3.00;;;9.00;99.90;;;;;;2070856;28;20701;-69
2023/05/19 04:10:54;;;;;;;5.30;2.77;;;9.00;99.90;;;;;;2055964;28;20232;-69
2023/05/19 04:11:54;;;;;;;4.90;3.10;;;9.30;99.90;;;;;;2056117;28;20208;-67
2023/05/19 04:12:55;;;;;;;7.23;2.83;;;8.90;99.90;;;;;;2065013;28;20220;-67
2023/05/19 04:13:57;;;;;;;4.47;2.77;;;8.90;99.90;;;;;;2062331;28;20201;-67
2023/05/19 04:14:58;;;;;;;5.00;3.03;;;9.00;99.90;;;;;;2060762;28;20335;-67
2023/05/19 04:16:00;;;;;;;7.50;3.50;;;9.10;99.90;;;;;;2060114;28;20688;-67
2023/05/19 04:17:01;;;;;;;6.55;3.17;;;9.10;99.90;;;;;;2043119;28;20224;-68
2023/05/19 04:18:02;;;;;;;6.70;3.40;;;9.30;99.90;;;;;;2050560;28;20696;-67
2023/05/19 04:19:02;;;;;;;5.73;3.53;;;9.20;99.90;;;;;;2055948;28;20585;-67
2023/05/19 04:20:05;;;;;;;7.37;3.20;;;9.20;99.90;;;;;;2055157;28;20261;-67
2023/05/19 04:21:07;;;;;;;7.80;3.22;;;9.10;99.90;;;;;;2046352;28;20290;-67
2023/05/19 04:22:08;;;;;;;5.47;3.00;;;9.10;99.90;;;;;;2046994;28;20607;-67
2023/05/19 04:23:09;;;;;;;5.23;3.20;;;9.20;99.90;;;;;;2047116;28;20229;-68
2023/05/19 04:24:10;;;;;;;7.80;3.03;;;9.20;99.90;;;;;;2052206;28;20231;-66
2023/05/19 04:25:10;;;;;;;5.27;3.17;;;9.20;99.90;;;;;;2059648;28;20640;-67
2023/05/19 04:26:13;;;;;;;4.57;2.97;;;9.10;99.90;;;;;;2051142;28;20219;-67
2023/05/19 04:27:15;;;;;;;5.28;3.20;;;9.10;99.90;;;;;;2051129;28;20218;-68
2023/05/19 04:28:16;;;;;;;4.30;2.80;;;9.10;99.90;;;;;;2046325;28;20246;-67
2023/05/19 04:29:17;;;;;;;4.05;2.80;;;9.10;99.90;;;;;;2052664;28;20301;-67
2023/05/19 04:30:21;;;;;;;3.47;2.65;;;9.10;99.90;;;;;;2055849;28;20241;-67
2023/05/19 04:31:22;;;;;;;4.90;2.90;;;9.20;99.90;;;;;;2056058;28;20286;-66
2023/05/19 04:32:24;;;;;;;6.10;2.80;;;9.10;99.90;;;;;;2056721;28;20286;-66
2023/05/19 04:33:25;;;;;;;6.15;3.95;;;9.00;99.90;;;;;;2057149;28;20365;-72
2023/05/19 04:34:27;;;;;;;5.30;3.00;;;9.10;99.90;;;;;;2062628;28;20241;-68
2023/05/19 04:35:28;;;;;;;5.60;2.70;;;9.10;99.90;;;;;;2052262;28;21029;-67
2023/05/19 04:36:29;;;;;;;8.47;3.20;;;9.10;99.90;;;;;;2055703;28;20230;-67
2023/05/19 04:37:30;;;;;;;8.23;3.17;;;9.20;99.90;;;;;;2053891;28;20336;-68
2023/05/19 04:38:32;;;;;;;4.13;2.60;;;9.30;99.90;;;;;;2062240;28;20233;-67
2023/05/19 04:39:32;;;;;;;6.38;2.65;;;9.30;99.90;;;;;;2067194;28;20340;-67
2023/05/19 04:40:34;;;;;;;4.87;2.93;;;9.30;99.90;;;;;;2060068;28;20631;-67
2023/05/19 04:41:34;;;;;;;6.82;3.80;;;9.30;99.90;;;;;;2060374;28;20222;-66
2023/05/19 04:42:36;;;;;;;6.93;3.00;;;9.20;99.90;;;;;;2062578;28;20249;-67
2023/05/19 04:43:40;;;;;;;7.03;3.00;;;9.20;99.90;;;;;;2050307;28;20238;-67
2023/05/19 04:44:41;;;;;;;8.35;3.45;;;9.20;99.90;;;;;;2056475;28;20276;-67
2023/05/19 04:45:41;;;;;;;6.70;3.00;;;9.20;99.90;;;;;;2051718;28;20696;-67
2023/05/19 04:46:44;;;;;;;3.27;2.60;;;9.20;99.90;;;;;;2059922;28;20676;-67
2023/05/19 04:47:46;;;;;;;5.63;2.53;;;9.30;99.90;;;;;;2056736;28;20214;-67
2023/05/19 04:48:48;;;;;;;4.57;2.92;;;9.30;99.90;;;;;;2053750;28;20213;-67
2023/05/19 04:49:54;;;;;;;3.63;2.72;;;9.30;99.90;;;;;;2048372;28;20196;-67
2023/05/19 04:50:54;;;;;;;5.68;2.83;;;9.30;99.90;;;;;;2054440;28;20558;-67
2023/05/19 04:51:55;;;;;;;5.90;2.90;;;9.20;99.90;;;;;;2050981;28;20214;-67
2023/05/19 04:52:58;;;;;;;4.60;4.00;;;9.10;99.90;;;;;;2058785;28;20246;-67
2023/05/19 04:53:58;;;;;;;5.47;3.00;;;9.00;99.90;;;;;;2057478;28;20244;-67
2023/05/19 04:55:00;;;;;;;5.53;2.40;;;9.00;99.90;;;;;;2056243;28;20231;-67
2023/05/19 04:56:01;;;;;;;6.10;3.00;;;9.00;99.90;;;;;;2059770;28;20222;-66
2023/05/19 04:57:03;;;;;;;4.60;2.75;;;9.10;99.90;;;;;;2056112;28;20301;-66
2023/05/19 04:58:07;;;;;;;7.60;3.30;;;9.10;99.90;;;;;;2065990;28;20250;-67
2023/05/19 04:59:08;;;;;;;4.37;2.50;;;9.20;99.90;;;;;;2064533;28;20237;-67
2023/05/19 05:00:12;;;;;;;4.43;2.65;;;9.30;99.90;;;;;;2062274;28;20292;-67
2023/05/19 05:01:14;;;;;;;3.90;2.60;;;9.30;99.90;;;;;;2058017;28;20661;-67
2023/05/19 05:02:15;;;;;;;5.05;2.92;;;9.30;99.90;;;;;;2056974;28;20239;-66
2023/05/19 05:03:16;;;;;;;7.93;2.90;;;9.40;99.90;;;;;;2051724;28;20219;-67
2023/05/19 05:04:17;;;;;;;3.75;2.65;;;9.40;99.90;;;;;;2057165;28;20381;-67
2023/05/19 05:05:17;;;;;;;4.83;3.00;;;9.50;99.90;;;;;;2055262;28;20228;-67
2023/05/19 05:06:18;;;;;;;5.20;2.80;;;9.40;99.90;;;;;;2057635;28;20226;-67
2023/05/19 05:07:23;;;;;;;5.20;2.90;;;9.50;99.90;;;;;;2055359;28;20236;-67
2023/05/19 05:08:23;;;;;;;4.18;2.75;;;9.50;99.90;;;;;;2054079;28;20316;-67
2023/05/19 05:09:24;;;;;;;6.67;2.70;;;9.50;99.60;;;;;;2058372;28;20270;-67
2023/05/19 05:10:26;;;;;;;5.70;2.80;;;9.40;99.80;;;;;;2054423;28;20234;-67
2023/05/19 05:11:28;;;;;;;4.18;2.63;;;9.40;99.70;;;;;;2058787;28;20253;-67
2023/05/19 05:12:30;;;;;;;6.30;3.00;;;9.30;99.80;;;;;;2059822;28;20241;-66
2023/05/19 05:13:31;;;;;;;3.90;2.90;;;9.20;99.90;;;;;;2057740;28;21061;-67
2023/05/19 05:14:32;;;;;;;6.78;3.22;;;9.20;99.90;;;;;;2056307;28;20266;-67
2023/05/19 05:15:34;;;;;;;4.10;2.60;;;9.20;99.90;;;;;;2061720;28;20254;-67
2023/05/19 05:16:35;;;;;;;5.00;3.08;;;9.30;99.90;;;;;;2064278;28;20238;-67
2023/05/19 05:17:36;;;;;;;3.38;2.80;;;9.40;99.90;;;;;;2060213;28;20302;-67
2023/05/19 05:18:37;;;;;;;3.45;2.70;;;9.30;99.90;;;;;;2060364;28;20277;-67
2023/05/19 05:19:39;;;;;;;7.28;2.67;;;9.30;99.90;;;;;;2059219;28;20724;-67
2023/05/19 05:20:45;;;;;;;4.72;2.80;;;9.40;99.90;;;;;;2044779;28;20207;-67
2023/05/19 05:21:46;;;;;;;5.38;3.15;;;9.50;99.90;;;;;;2065233;28;20189;-67
2023/05/19 05:22:47;;;;;;;4.40;2.83;;;9.50;99.30;;;;;;2063019;28;20221;-67
2023/05/19 05:23:51;;;;;;;6.47;3.00;;;9.50;99.60;;;;;;2054958;28;20597;-67
2023/05/19 05:24:52;;;;;;;4.63;2.67;;;9.50;99.70;;;;;;2057379;28;20195;-67
2023/05/19 05:25:53;;;;;;;2.67;2.42;;;9.50;99.30;;;;;;2058940;28;20218;-67
2023/05/19 05:26:55;;;;;;;3.50;2.45;;;9.50;99.50;;;;;;2056889;28;20724;-68
2023/05/19 05:27:57;;;;;;;5.15;2.60;;;9.60;99.40;;;;;;2055489;28;20250;-67
2023/05/19 05:28:59;;;;;;;5.50;2.53;;;9.70;99.00;;;;;;2051269;28;20707;-67
2023/05/19 05:30:00;;;;;;;7.32;2.78;;;9.60;98.80;;;;;;2051075;28;20219;-67
2023/05/19 05:31:00;;;;;;;4.00;2.50;;;9.60;98.50;;;;;;2057876;28;20223;-67
2023/05/19 05:32:01;;;;;;;3.83;2.53;;;9.60;98.60;;;;;;2060476;28;20704;-68
2023/05/19 05:33:02;;;;;;;4.83;2.60;;;9.60;98.60;;;;;;2057653;28;20222;-67
2023/05/19 05:34:03;;;;;;;3.60;2.90;;;9.60;98.90;;;;;;2057640;28;20225;-67